createdAt,value
2023-04-16T00:01:28.405Z,99300.03
2023-04-16T00:03:55.760Z,99306.16
2023-04-16T00:06:23.206Z,99310.03
2023-04-16T00:08:51.556Z,99308.78
2023-04-16T00:11:18.269Z,99303.69
2023-04-16T00:13:45.004Z,99310.13
2023-04-16T00:16:11.751Z,99300.91
2023-04-16T00:18:39.342Z,99305.19
2023-04-16T00:21:07.083Z,99303.81
2023-04-16T00:23:33.987Z,99306.03
2023-04-16T00:26:00.780Z,99314.03
2023-04-16T00:28:27.688Z,99311.69
2023-04-16T00:30:55.186Z,99313.97
2023-04-16T00:33:23.892Z,99316.41
2023-04-16T00:35:51.176Z,99305.66
2023-04-16T00:38:17.976Z,99316.53
2023-04-16T00:40:44.670Z,99315.59
2023-04-16T00:43:11.403Z,99312.06
2023-04-16T00:45:38.553Z,99313.72
2023-04-16T00:48:05.972Z,99317.72
2023-04-16T00:50:33.347Z,99307.84
2023-04-16T00:53:00.705Z,99321.47
2023-04-16T00:55:27.546Z,99319.44
2023-04-16T00:57:54.301Z,99312.38
2023-04-16T01:00:21.519Z,99315.56
2023-04-16T01:02:48.480Z,99309.72
2023-04-16T01:05:16.440Z,99314.59
2023-04-16T01:07:43.188Z,99326.19
2023-04-16T01:10:10.072Z,99320.78
2023-04-16T01:12:36.780Z,99315.09
2023-04-16T01:15:03.745Z,99309.69
2023-04-16T01:17:30.476Z,99321.22
2023-04-16T01:20:00.606Z,99321.22
2023-04-16T01:22:28.360Z,99319.19
2023-04-16T01:24:55.062Z,99328.09
2023-04-16T01:27:21.858Z,99335.31
2023-04-16T01:29:48.637Z,99333.75
2023-04-16T01:32:15.517Z,99332.09
2023-04-16T01:34:42.206Z,99329.22
2023-04-16T01:37:09.028Z,99316.34
2023-04-16T01:39:35.704Z,99306.09
2023-04-16T01:42:02.581Z,99324.25
2023-04-16T01:44:30.897Z,99326.53
2023-04-16T01:46:57.787Z,99332.53
2023-04-16T01:49:24.766Z,99340.78
2023-04-16T01:51:51.687Z,99340.28
2023-04-16T01:54:18.430Z,99324.28
2023-04-16T01:56:45.310Z,99334.59
2023-04-16T01:59:12.400Z,99336.44
2023-04-16T02:01:39.410Z,99337.81
2023-04-16T02:04:07.456Z,99333.00
2023-04-16T02:06:34.330Z,99334.38
2023-04-16T02:09:01.062Z,99336.00
2023-04-16T02:11:27.821Z,99340.56
2023-04-16T02:13:54.592Z,99331.03
2023-04-16T02:16:21.432Z,99341.75
2023-04-16T02:18:48.170Z,99338.09
2023-04-16T02:21:14.893Z,99336.06
2023-04-16T02:23:41.637Z,99332.97
2023-04-16T02:26:08.364Z,99335.69
2023-04-16T02:28:35.148Z,99339.06
2023-04-16T02:31:01.847Z,99343.69
2023-04-16T02:33:28.721Z,99352.00
2023-04-16T02:35:55.524Z,99351.41
2023-04-16T02:38:22.260Z,99352.94
2023-04-16T02:40:49.101Z,99346.19
2023-04-16T02:43:15.852Z,99352.19
2023-04-16T02:45:42.712Z,99352.47
2023-04-16T02:48:09.993Z,99349.69
2023-04-16T02:50:36.681Z,99348.72
2023-04-16T02:53:04.376Z,99350.09
2023-04-16T02:55:31.131Z,99358.78
2023-04-16T02:57:57.842Z,99361.19
2023-04-16T03:00:24.623Z,99371.13
2023-04-16T03:02:51.579Z,99368.16
2023-04-16T03:05:18.508Z,99368.06
2023-04-16T03:07:45.386Z,99364.22
2023-04-16T03:10:13.353Z,99362.97
2023-04-16T03:12:40.114Z,99357.59
2023-04-16T03:15:07.278Z,99358.44
2023-04-16T03:17:34.160Z,99356.91
2023-04-16T03:20:00.970Z,99357.19
2023-04-16T03:22:27.736Z,99349.94
2023-04-16T03:24:54.511Z,99355.94
2023-04-16T03:27:21.272Z,99359.03
2023-04-16T03:29:48.007Z,99362.97
2023-04-16T03:32:14.784Z,99372.44
2023-04-16T03:34:41.474Z,99370.03
2023-04-16T03:37:11.921Z,99379.94
2023-04-16T03:39:38.864Z,99382.06
2023-04-16T03:42:05.607Z,99383.72
2023-04-16T03:44:32.303Z,99387.38
2023-04-16T03:46:59.223Z,99392.38
2023-04-16T03:49:26.121Z,99399.13
2023-04-16T03:51:52.857Z,99407.22
2023-04-16T03:54:21.293Z,99408.00
2023-04-16T03:56:49.257Z,99413.47
2023-04-16T03:59:16.011Z,99412.44
2023-04-16T04:01:42.783Z,99410.31
2023-04-16T04:04:09.951Z,99414.94
2023-04-16T04:06:36.745Z,99423.72
2023-04-16T04:09:03.962Z,99426.72
2023-04-16T04:11:30.677Z,99427.69
2023-04-16T04:13:57.405Z,99425.00
2023-04-16T04:16:24.141Z,99422.78
2023-04-16T04:18:50.853Z,99419.50
2023-04-16T04:21:17.610Z,99417.88
2023-04-16T04:23:44.484Z,99417.28
2023-04-16T04:26:11.344Z,99430.22
2023-04-16T04:28:38.006Z,99425.00
2023-04-16T04:31:04.886Z,99420.84
2023-04-16T04:33:31.701Z,99417.66
2023-04-16T04:35:58.475Z,99418.03
2023-04-16T04:38:25.396Z,99409.53
2023-04-16T04:40:53.022Z,99418.22
2023-04-16T04:43:20.372Z,99427.84
2023-04-16T04:45:47.400Z,99430.34
2023-04-16T04:48:14.149Z,99439.19
2023-04-16T04:50:41.530Z,99444.13
2023-04-16T04:53:11.457Z,99442.13
2023-04-16T04:55:38.917Z,99442.88
2023-04-16T04:58:06.550Z,99439.50
2023-04-16T05:00:33.776Z,99439.00
2023-04-16T05:03:06.109Z,99441.34
2023-04-16T05:05:33.037Z,99448.66
2023-04-16T05:07:59.843Z,99447.91
2023-04-16T05:10:27.269Z,99459.28
2023-04-16T05:12:53.995Z,99451.94
2023-04-16T05:15:20.737Z,99450.00
2023-04-16T05:17:47.510Z,99448.34
2023-04-16T05:20:14.585Z,99448.22
2023-04-16T05:22:41.436Z,99443.97
2023-04-16T05:25:08.567Z,99457.19
2023-04-16T05:27:35.377Z,99444.03
2023-04-16T05:30:02.467Z,99449.16
2023-04-16T05:32:29.263Z,99455.19
2023-04-16T05:34:56.006Z,99454.66
2023-04-16T05:37:22.702Z,99457.06
2023-04-16T05:39:49.413Z,99464.94
2023-04-16T05:42:16.297Z,99468.78
2023-04-16T05:44:43.042Z,99466.53
2023-04-16T05:47:09.710Z,99465.75
2023-04-16T05:49:39.197Z,99471.63
2023-04-16T05:52:06.261Z,99483.47
2023-04-16T05:54:32.928Z,99482.13
2023-04-16T05:57:01.120Z,99482.31
2023-04-16T05:59:28.114Z,99484.84
2023-04-16T06:01:54.865Z,99480.59
2023-04-16T06:04:21.630Z,99479.09
2023-04-16T06:06:48.545Z,99478.38
2023-04-16T06:09:15.382Z,99488.53
2023-04-16T06:11:42.170Z,99486.72
2023-04-16T06:14:08.889Z,99486.47
2023-04-16T06:16:35.549Z,99490.47
2023-04-16T06:19:02.369Z,99494.47
2023-04-16T06:21:29.354Z,99498.22
2023-04-16T06:23:56.218Z,99492.84
2023-04-16T06:26:23.074Z,99491.47
2023-04-16T06:28:50.378Z,99491.63
2023-04-16T06:31:17.174Z,99496.72
2023-04-16T06:33:43.935Z,99497.16
2023-04-16T06:36:11.541Z,99496.41
2023-04-16T06:38:38.507Z,99499.16
2023-04-16T06:41:05.383Z,99493.78
2023-04-16T06:43:33.511Z,99501.31
2023-04-16T06:46:00.277Z,99499.72
2023-04-16T06:48:27.436Z,99498.44
2023-04-16T06:50:55.000Z,99504.44
2023-04-16T06:53:21.797Z,99507.59
2023-04-16T06:55:48.472Z,99502.06
2023-04-16T06:58:15.224Z,99494.69
2023-04-16T07:00:42.008Z,99499.44
2023-04-16T07:03:08.881Z,99507.63
2023-04-16T07:05:36.063Z,99509.91
2023-04-16T07:08:02.834Z,99506.91
2023-04-16T07:10:29.600Z,99504.56
2023-04-16T07:12:56.356Z,99506.31
2023-04-16T07:15:23.125Z,99503.25
2023-04-16T07:17:49.914Z,99514.97
2023-04-16T07:20:18.277Z,99511.19
2023-04-16T07:22:45.058Z,99519.97
2023-04-16T07:25:11.756Z,99517.78
2023-04-16T07:27:38.509Z,99522.41
2023-04-16T07:30:05.932Z,99514.63
2023-04-16T07:32:32.756Z,99519.09
2023-04-16T07:34:59.592Z,99512.72
2023-04-16T07:37:26.400Z,99507.75
2023-04-16T07:39:53.195Z,99506.50
2023-04-16T07:42:20.846Z,99509.72
2023-04-16T07:44:47.638Z,99517.88
2023-04-16T07:47:14.288Z,99513.19
2023-04-16T07:49:40.975Z,99511.84
2023-04-16T07:52:07.679Z,99517.41
2023-04-16T07:54:34.520Z,99513.66
2023-04-16T07:57:01.295Z,99510.09
2023-04-16T07:59:28.108Z,99505.78
2023-04-16T08:01:55.088Z,99517.59
2023-04-16T08:04:25.730Z,99516.38
2023-04-16T08:06:53.808Z,99520.88
2023-04-16T08:09:21.653Z,99527.34
2023-04-16T08:11:49.876Z,99523.97
2023-04-16T08:14:17.196Z,99524.00
2023-04-16T08:16:43.930Z,99517.94
2023-04-16T08:19:11.022Z,99518.06
2023-04-16T08:21:38.038Z,99517.25
2023-04-16T08:24:04.802Z,99522.56
2023-04-16T08:26:31.475Z,99518.03
2023-04-16T08:28:58.217Z,99521.31
2023-04-16T08:31:25.038Z,99509.28
2023-04-16T08:33:51.811Z,99505.28
2023-04-16T08:36:18.586Z,99511.69
2023-04-16T08:38:45.282Z,99513.47
2023-04-16T08:41:13.208Z,99528.97
2023-04-16T08:43:45.082Z,99528.28
2023-04-16T08:46:12.460Z,99524.56
2023-04-16T08:48:43.188Z,99532.72
2023-04-16T08:51:11.171Z,99533.22
2023-04-16T08:53:49.349Z,99537.00
2023-04-16T08:56:17.338Z,99536.28
2023-04-16T08:58:45.385Z,99540.91
2023-04-16T09:01:12.203Z,99547.19
2023-04-16T09:03:39.431Z,99547.22
2023-04-16T09:06:06.553Z,99544.94
2023-04-16T09:08:35.748Z,99547.53
2023-04-16T09:11:02.560Z,99551.72
2023-04-16T09:13:30.648Z,99551.72
2023-04-16T09:15:57.821Z,99552.81
2023-04-16T09:18:24.784Z,99553.53
2023-04-16T09:20:52.127Z,99549.34
2023-04-16T09:23:18.887Z,99553.13
2023-04-16T09:25:45.625Z,99550.13
2023-04-16T09:28:12.492Z,99552.59
2023-04-16T09:30:39.281Z,99555.75
2023-04-16T09:33:22.354Z,99563.38
2023-04-16T09:35:50.858Z,99565.91
2023-04-16T09:38:18.021Z,99569.91
2023-04-16T09:40:45.192Z,99577.09
2023-04-16T09:43:18.988Z,99577.97
2023-04-16T09:45:52.655Z,99574.59
2023-04-16T09:48:30.011Z,99569.53
2023-04-16T09:50:57.902Z,99576.09
2023-04-16T09:53:29.659Z,99575.81
2023-04-16T09:56:05.035Z,99576.50
2023-04-16T09:58:32.377Z,99568.81
2023-04-16T10:01:03.277Z,99567.28
2023-04-16T10:03:31.892Z,99572.06
2023-04-16T10:06:18.502Z,99573.97
2023-04-16T10:08:52.688Z,99570.88
2023-04-16T10:11:20.495Z,99567.69
2023-04-16T10:13:47.382Z,99568.28
2023-04-16T10:16:14.220Z,99566.06
2023-04-16T10:18:42.853Z,99554.06
2023-04-16T10:21:12.959Z,99566.38
2023-04-16T10:23:40.349Z,99568.38
2023-04-16T10:26:07.205Z,99564.47
2023-04-16T10:28:35.540Z,99567.66
2023-04-16T10:31:04.128Z,99570.91
2023-04-16T10:33:36.470Z,99561.09
2023-04-16T10:36:10.439Z,99563.47
2023-04-16T10:38:53.756Z,99565.84
2023-04-16T10:41:21.140Z,99563.66
2023-04-16T10:43:49.584Z,99562.63
2023-04-16T10:46:27.322Z,99566.94
2023-04-16T10:48:54.788Z,99556.88
2023-04-16T10:51:26.082Z,99563.44
2023-04-16T10:53:55.048Z,99567.16
2023-04-16T10:56:27.922Z,99563.47
2023-04-16T10:58:56.298Z,99557.44
2023-04-16T11:01:34.059Z,99554.03
2023-04-16T11:04:22.281Z,99565.25
2023-04-16T11:07:07.595Z,99553.53
2023-04-16T11:09:54.583Z,99549.38
2023-04-16T11:12:23.767Z,99541.84
2023-04-16T11:14:55.202Z,99545.41
2023-04-16T11:17:22.393Z,99544.91
2023-04-16T11:19:49.287Z,99546.91
2023-04-16T11:22:17.610Z,99538.88
2023-04-16T11:24:45.676Z,99540.47
2023-04-16T11:27:14.010Z,99546.53
2023-04-16T11:29:41.471Z,99549.19
2023-04-16T11:32:08.300Z,99545.47
2023-04-16T11:34:35.165Z,99536.03
2023-04-16T11:37:01.948Z,99531.69
2023-04-16T11:39:28.607Z,99537.81
2023-04-16T11:41:56.011Z,99534.25
2023-04-16T11:44:24.467Z,99539.72
2023-04-16T11:46:52.237Z,99537.56
2023-04-16T11:49:31.181Z,99535.78
2023-04-16T11:51:58.516Z,99533.69
2023-04-16T11:54:25.975Z,99527.75
2023-04-16T11:56:53.686Z,99527.91
2023-04-16T11:59:23.137Z,99521.28
2023-04-16T12:01:52.040Z,99525.28
2023-04-16T12:04:21.389Z,99527.09
2023-04-16T12:07:07.940Z,99516.78
2023-04-16T12:09:38.521Z,99520.75
2023-04-16T12:12:07.058Z,99520.63
2023-04-16T12:14:33.839Z,99528.56
2023-04-16T12:17:22.407Z,99523.31
2023-04-16T12:19:55.749Z,99515.72
2023-04-16T12:22:28.307Z,99515.25
2023-04-16T12:25:06.841Z,99507.00
2023-04-16T12:27:51.482Z,99513.81
2023-04-16T12:30:21.157Z,99511.00
2023-04-16T12:32:49.988Z,99510.06
2023-04-16T12:35:33.255Z,99514.44
2023-04-16T12:38:00.665Z,99511.72
2023-04-16T12:40:27.586Z,99507.94
2023-04-16T12:42:54.905Z,99507.69
2023-04-16T12:45:22.296Z,99498.38
2023-04-16T12:47:50.536Z,99494.59
2023-04-16T12:50:17.523Z,99489.78
2023-04-16T12:52:44.377Z,99496.66
2023-04-16T12:55:11.104Z,99495.13
2023-04-16T12:57:37.840Z,99492.56
2023-04-16T13:00:06.637Z,99484.81
2023-04-16T13:02:34.123Z,99486.06
2023-04-16T13:05:01.476Z,99477.97
2023-04-16T13:07:28.315Z,99480.41
2023-04-16T13:09:55.101Z,99477.28
2023-04-16T13:12:21.862Z,99478.19
2023-04-16T13:14:48.587Z,99478.53
2023-04-16T13:17:15.484Z,99474.66
2023-04-16T13:19:42.171Z,99482.88
2023-04-16T13:22:09.409Z,99469.94
2023-04-16T13:24:36.242Z,99468.13
2023-04-16T13:27:03.092Z,99472.50
2023-04-16T13:29:30.145Z,99447.47
2023-04-16T13:31:57.365Z,99466.56
2023-04-16T13:34:24.072Z,99467.47
2023-04-16T13:36:50.758Z,99458.31
2023-04-16T13:39:17.591Z,99465.22
2023-04-16T13:41:44.383Z,99455.09
2023-04-16T13:44:11.196Z,99457.13
2023-04-16T13:46:38.064Z,99461.19
2023-04-16T13:49:04.762Z,99458.28
2023-04-16T13:51:32.116Z,99445.63
2023-04-16T13:53:58.891Z,99456.22
2023-04-16T13:56:26.017Z,99447.66
2023-04-16T13:58:52.798Z,99443.34
2023-04-16T14:01:19.785Z,99446.25
2023-04-16T14:03:46.729Z,99444.47
2023-04-16T14:06:14.990Z,99443.06
2023-04-16T14:08:41.648Z,99447.34
2023-04-16T14:11:09.159Z,99443.22
2023-04-16T14:13:36.385Z,99430.31
2023-04-16T14:16:03.164Z,99441.75
2023-04-16T14:18:30.038Z,99438.38
2023-04-16T14:20:56.837Z,99437.31
2023-04-16T14:23:23.550Z,99431.97
2023-04-16T14:25:50.269Z,99426.31
2023-04-16T14:28:17.127Z,99429.78
2023-04-16T14:30:43.902Z,99429.06
2023-04-16T14:33:10.671Z,99421.53
2023-04-16T14:35:37.454Z,99411.22
2023-04-16T14:38:04.223Z,99418.47
2023-04-16T14:40:31.277Z,99429.94
2023-04-16T14:42:57.938Z,99425.84
2023-04-16T14:45:28.995Z,99423.97
2023-04-16T14:47:56.023Z,99426.25
2023-04-16T14:50:22.855Z,99416.72
2023-04-16T14:52:50.790Z,99417.09
2023-04-16T14:55:17.535Z,99414.78
2023-04-16T14:57:44.322Z,99410.59
2023-04-16T15:00:11.993Z,99417.09
2023-04-16T15:02:39.007Z,99411.03
2023-04-16T15:05:07.823Z,99413.69
2023-04-16T15:07:34.559Z,99412.59
2023-04-16T15:10:01.325Z,99406.09
2023-04-16T15:12:28.081Z,99411.81
2023-04-16T15:14:54.869Z,99403.84
2023-04-16T15:17:21.706Z,99408.03
2023-04-16T15:19:48.551Z,99408.03
2023-04-16T15:22:15.561Z,99409.19
2023-04-16T15:24:42.275Z,99409.19
2023-04-16T15:27:11.546Z,99407.31
2023-04-16T15:29:38.763Z,99413.78
2023-04-16T15:32:06.990Z,99422.94
2023-04-16T15:34:33.713Z,99411.91
2023-04-16T15:37:00.642Z,99418.75
2023-04-16T15:39:27.475Z,99415.72
2023-04-16T15:42:01.432Z,99418.00
2023-04-16T15:44:31.040Z,99418.00
2023-04-16T15:46:57.831Z,99416.47
2023-04-16T15:49:24.850Z,99416.47
2023-04-16T15:51:52.417Z,99405.78
2023-04-16T15:54:19.307Z,99410.72
2023-04-16T15:56:46.669Z,99412.25
2023-04-16T15:59:13.692Z,99412.63
2023-04-16T16:01:40.903Z,99409.16
2023-04-16T16:04:08.199Z,99412.19
2023-04-16T16:06:35.248Z,99408.78
2023-04-16T16:09:02.038Z,99414.13
2023-04-16T16:11:28.761Z,99409.59
2023-04-16T16:13:55.505Z,99413.00
2023-04-16T16:16:22.333Z,99411.13
2023-04-16T16:18:49.049Z,99415.34
2023-04-16T16:21:16.136Z,99418.03
2023-04-16T16:23:42.899Z,99418.00
2023-04-16T16:26:09.689Z,99411.91
2023-04-16T16:28:38.956Z,99409.56
2023-04-16T16:31:06.902Z,99415.25
2023-04-16T16:33:33.743Z,99405.69
2023-04-16T16:36:00.584Z,99407.13
2023-04-16T16:38:27.665Z,99408.94
2023-04-16T16:40:54.446Z,99411.50
2023-04-16T16:43:21.446Z,99413.00
2023-04-16T16:45:48.503Z,99409.88
2023-04-16T16:48:15.313Z,99409.78
2023-04-16T16:50:42.109Z,99415.78
2023-04-16T16:53:09.138Z,99408.50
2023-04-16T16:55:36.046Z,99415.59
2023-04-16T16:58:03.449Z,99416.22
2023-04-16T17:00:30.579Z,99421.38
2023-04-16T17:02:57.504Z,99410.63
2023-04-16T17:05:24.390Z,99412.78
2023-04-16T17:07:51.121Z,99419.88
2023-04-16T17:10:21.042Z,99412.56
2023-04-16T17:12:51.161Z,99418.91
2023-04-16T17:15:20.580Z,99419.91
2023-04-16T17:17:48.445Z,99421.28
2023-04-16T17:20:15.712Z,99418.91
2023-04-16T17:22:42.695Z,99428.59
2023-04-16T17:25:09.741Z,99430.00
2023-04-16T17:27:36.725Z,99429.72
2023-04-16T17:30:05.464Z,99428.06
2023-04-16T17:32:32.886Z,99428.31
2023-04-16T17:35:00.948Z,99430.03
2023-04-16T17:37:27.860Z,99440.53
2023-04-16T17:39:54.580Z,99439.31
2023-04-16T17:42:21.685Z,99444.88
2023-04-16T17:44:48.401Z,99448.25
2023-04-16T17:47:15.084Z,99445.53
2023-04-16T17:49:41.919Z,99448.09
2023-04-16T17:52:08.692Z,99448.41
2023-04-16T17:54:35.950Z,99450.56
2023-04-16T17:57:02.934Z,99458.88
2023-04-16T17:59:29.610Z,99459.22
2023-04-16T18:01:56.734Z,99462.56
2023-04-16T18:04:23.696Z,99467.78
2023-04-16T18:06:50.905Z,99463.59
2023-04-16T18:09:19.197Z,99472.31
2023-04-16T18:11:46.046Z,99458.66
2023-04-16T18:14:16.673Z,99454.84
2023-04-16T18:16:43.449Z,99452.19
2023-04-16T18:19:10.258Z,99456.31
2023-04-16T18:21:37.025Z,99457.75
2023-04-16T18:24:03.880Z,99450.13
2023-04-16T18:26:31.171Z,99456.88
2023-04-16T18:29:00.427Z,99461.25
2023-04-16T18:31:27.927Z,99471.00
2023-04-16T18:33:58.101Z,99464.53
2023-04-16T18:36:26.817Z,99467.13
2023-04-16T18:39:01.628Z,99468.63
2023-04-16T18:41:29.626Z,99467.78
2023-04-16T18:43:56.594Z,99473.50
2023-04-16T18:46:23.562Z,99478.47
2023-04-16T18:48:50.314Z,99480.59
2023-04-16T18:51:17.169Z,99469.31
2023-04-16T18:53:45.679Z,99459.88
2023-04-16T18:56:12.711Z,99446.94
2023-04-16T18:58:39.405Z,99453.69
2023-04-16T19:01:11.016Z,99449.06
2023-04-16T19:03:38.810Z,99450.94
2023-04-16T19:06:06.254Z,99460.66
2023-04-16T19:08:33.105Z,99456.84
2023-04-16T19:10:59.999Z,99457.56
2023-04-16T19:13:26.775Z,99458.31
2023-04-16T19:16:00.857Z,99449.97
2023-04-16T19:18:27.845Z,99450.66
2023-04-16T19:21:01.433Z,99444.94
2023-04-16T19:23:28.422Z,99444.53
2023-04-16T19:25:58.308Z,99448.22
2023-04-16T19:28:25.523Z,99445.06
2023-04-16T19:30:53.238Z,99448.00
2023-04-16T19:33:20.418Z,99443.41
2023-04-16T19:35:47.662Z,99444.06
2023-04-16T19:38:14.473Z,99442.13
2023-04-16T19:40:45.040Z,99435.31
2023-04-16T19:43:11.745Z,99437.53
2023-04-16T19:45:52.405Z,99443.94
2023-04-16T19:48:22.060Z,99443.53
2023-04-16T19:50:48.902Z,99439.28
2023-04-16T19:53:17.185Z,99441.16
2023-04-16T19:55:44.050Z,99440.69
2023-04-16T19:58:10.898Z,99437.66
2023-04-16T20:00:38.900Z,99446.69
2023-04-16T20:03:06.225Z,99437.66
2023-04-16T20:05:33.152Z,99436.13
2023-04-16T20:08:00.002Z,99441.00
2023-04-16T20:10:27.727Z,99446.69
2023-04-16T20:12:54.409Z,99439.19
2023-04-16T20:15:21.101Z,99438.06
2023-04-16T20:17:47.878Z,99437.66
2023-04-16T20:20:15.858Z,99438.84
2023-04-16T20:22:43.016Z,99428.28
2023-04-16T20:25:10.113Z,99435.44
2023-04-16T20:27:36.878Z,99432.78
2023-04-16T20:30:05.459Z,99435.44
2023-04-16T20:32:32.368Z,99439.19
2023-04-16T20:34:59.765Z,99437.66
2023-04-16T20:37:28.784Z,99433.84
2023-04-16T20:39:56.094Z,99435.56
2023-04-16T20:42:23.069Z,99430.53
2023-04-16T20:44:56.149Z,99433.44
2023-04-16T20:47:23.027Z,99432.59
2023-04-16T20:49:49.898Z,99432.19
2023-04-16T20:52:16.826Z,99434.03
2023-04-16T20:54:43.681Z,99433.19
2023-04-16T20:57:10.663Z,99428.94
2023-04-16T20:59:37.504Z,99420.16
2023-04-16T21:02:04.390Z,99415.59
2023-04-16T21:04:31.679Z,99403.09
2023-04-16T21:06:58.522Z,99413.63
2023-04-16T21:09:25.345Z,99417.63
2023-04-16T21:11:52.069Z,99423.34
2023-04-16T21:14:18.798Z,99424.84
2023-04-16T21:16:45.556Z,99420.78
2023-04-16T21:19:12.397Z,99419.66
2023-04-16T21:21:39.380Z,99414.75
2023-04-16T21:24:06.548Z,99425.28
2023-04-16T21:26:33.214Z,99431.34
2023-04-16T21:28:59.996Z,99432.44
2023-04-16T21:31:26.746Z,99433.53
2023-04-16T21:33:53.636Z,99429.03
2023-04-16T21:36:20.507Z,99422.13
2023-04-16T21:38:47.323Z,99416.38
2023-04-16T21:41:14.113Z,99419.25
2023-04-16T21:43:40.748Z,99414.28
2023-04-16T21:46:07.453Z,99418.41
2023-04-16T21:48:34.202Z,99420.19
2023-04-16T21:51:06.342Z,99411.94
2023-04-16T21:53:33.479Z,99415.59
2023-04-16T21:56:00.493Z,99414.03
2023-04-16T21:58:27.286Z,99411.41
2023-04-16T22:00:54.179Z,99404.97
2023-04-16T22:03:28.322Z,99403.38
2023-04-16T22:06:00.969Z,99406.34
2023-04-16T22:08:28.942Z,99404.84
2023-04-16T22:11:00.223Z,99399.56
2023-04-16T22:13:27.812Z,99399.56
2023-04-16T22:15:55.025Z,99392.75
2023-04-16T22:18:27.088Z,99391.22
2023-04-16T22:20:55.023Z,99393.84
2023-04-16T22:23:25.540Z,99396.50
2023-04-16T22:25:54.311Z,99400.91
2023-04-16T22:28:21.170Z,99397.84
2023-04-16T22:30:47.855Z,99389.09
2023-04-16T22:33:14.639Z,99385.69
2023-04-16T22:35:41.519Z,99382.63
2023-04-16T22:38:08.283Z,99387.78
2023-04-16T22:40:35.054Z,99379.81
2023-04-16T22:43:01.736Z,99372.66
2023-04-16T22:45:28.595Z,99373.75
2023-04-16T22:47:55.323Z,99376.41
2023-04-16T22:50:23.196Z,99380.25
2023-04-16T22:52:49.986Z,99378.34
2023-04-16T22:55:16.820Z,99374.19
2023-04-16T22:57:43.655Z,99377.94
2023-04-16T23:00:15.855Z,99378.63
2023-04-16T23:02:43.229Z,99375.53
2023-04-16T23:05:10.778Z,99377.00
2023-04-16T23:07:37.685Z,99377.69
2023-04-16T23:10:04.818Z,99382.84
2023-04-16T23:12:31.514Z,99372.97
2023-04-16T23:14:58.344Z,99375.09
2023-04-16T23:17:25.198Z,99368.22
2023-04-16T23:19:52.130Z,99360.13
2023-04-16T23:22:18.880Z,99360.03
2023-04-16T23:24:45.776Z,99354.91
2023-04-16T23:27:12.610Z,99348.69
2023-04-16T23:29:39.310Z,99358.69
2023-04-16T23:32:06.048Z,99354.09
2023-04-16T23:34:32.741Z,99347.06
2023-04-16T23:36:59.453Z,99353.84
2023-04-16T23:39:26.208Z,99350.78
2023-04-16T23:41:52.948Z,99355.38
2023-04-16T23:44:19.693Z,99356.91
2023-04-16T23:46:46.412Z,99351.66
2023-04-16T23:49:13.318Z,99353.09
2023-04-16T23:51:40.222Z,99352.31
2023-04-16T23:54:07.049Z,99349.25
2023-04-16T23:56:33.856Z,99349.16
2023-04-16T23:59:00.772Z,99347.28
